Time;durP1;ratioP1;P1;durP2;ratioP2;P2;SDS_P1;SDS_P2;PMS_P1;PMS_P2;Temp;Humidity;BMP_temperature;BMP_pressure;BME280_temperature;BME280_humidity;BME280_pressure;Samples;Min_cycle;Max_cycle;Signal;HPM_P1;HPM_P2
2021/12/13 00:00:34;;;;;;;1.40;1.30;;;;;;;7.49;100.00;101396.28;5077027;28;20177;-76
2021/12/13 00:03:12;;;;;;;0.30;0.30;;;;;;;7.51;100.00;101396.81;5076898;28;20595;-75
2021/12/13 00:05:47;;;;;;;2.07;1.87;;;;;;;7.53;100.00;101405.53;5076918;28;20208;-76
2021/12/13 00:08:18;;;;;;;1.60;1.50;;;;;;;7.52;100.00;101376.69;5076889;28;20216;-76
2021/12/13 00:10:50;;;;;;;0.60;0.53;;;;;;;7.56;100.00;101396.03;5076959;28;20206;-76
2021/12/13 00:13:21;;;;;;;1.87;1.77;;;;;;;7.56;100.00;101391.41;5075102;28;20185;-77
2021/12/13 00:16:04;;;;;;;0.10;0.10;;;;;;;7.58;100.00;101402.00;5076797;28;20170;-76
2021/12/13 00:18:37;;;;;;;0.37;0.33;;;;;;;7.58;100.00;101424.59;5076981;28;20556;-76
2021/12/13 00:21:12;;;;;;;1.57;1.47;;;;;;;7.60;100.00;101406.09;5076859;28;20210;-76
2021/12/13 00:23:50;;;;;;;2.57;1.97;;;;;;;7.61;100.00;101398.75;5076790;28;20163;-77
2021/12/13 00:26:26;;;;;;;1.60;1.50;;;;;;;7.62;100.00;101401.19;5076815;28;20197;-76
2021/12/13 00:28:52;;;;;;;0.80;0.80;;;;;;;7.64;100.00;101407.19;5076855;28;20174;-74
2021/12/13 00:31:45;;;;;;;1.57;1.47;;;;;;;7.64;100.00;101404.47;5076887;28;20181;-76
2021/12/13 00:34:29;;;;;;;1.53;1.43;;;;;;;7.64;100.00;101419.97;5076843;28;20174;-76
2021/12/13 00:36:59;;;;;;;0.97;0.97;;;;;;;7.65;100.00;101413.44;5076706;28;20261;-76
2021/12/13 00:39:30;;;;;;;0.53;0.50;;;;;;;7.66;100.00;101407.72;5076789;28;20189;-76
2021/12/13 00:41:56;;;;;;;1.10;1.10;;;;;;;7.67;100.00;101428.44;5076646;28;20232;-75
2021/12/13 00:44:32;;;;;;;1.20;0.70;;;;;;;7.68;100.00;101438.22;5073633;28;20175;-76
2021/12/13 00:47:02;;;;;;;1.20;1.10;;;;;;;7.70;100.00;101411.56;5072216;28;20240;-76
2021/12/13 00:49:29;;;;;;;0.70;0.70;;;;;;;7.73;100.00;101424.63;5073574;28;20182;-76
2021/12/13 00:51:56;;;;;;;1.80;1.70;;;;;;;7.79;100.00;101430.06;5073374;28;20173;-77
2021/12/13 00:54:42;;;;;;;1.57;1.47;;;;;;;7.80;100.00;101429.81;5073268;28;20531;-76
2021/12/13 00:57:16;;;;;;;0.83;0.67;;;;;;;7.85;100.00;101429.00;5073359;28;20174;-76
2021/12/13 00:59:55;;;;;;;2.87;2.63;;;;;;;7.88;100.00;101444.78;5071976;28;20577;-76
2021/12/13 01:02:43;;;;;;;2.00;1.80;;;;;;;7.90;100.00;101438.00;5073290;28;20167;-76
2021/12/13 01:05:11;;;;;;;0.93;0.80;;;;;;;7.92;100.00;101456.78;5073021;28;20206;-76
2021/12/13 01:07:42;;;;;;;1.53;1.43;;;;;;;7.92;100.00;101440.44;5072944;28;20239;-75
2021/12/13 01:10:39;;;;;;;0.97;0.93;;;;;;;7.92;100.00;101443.16;5072903;28;20190;-76
2021/12/13 01:13:22;;;;;;;2.30;2.20;;;;;;;7.91;100.00;101441.53;5072555;28;20229;-75
2021/12/13 01:21:59;;;;;;;0.80;0.80;;;;;;;7.96;100.00;101452.44;5073010;28;20174;-76
2021/12/13 01:25:15;;;;;;;2.97;2.27;;;;;;;7.94;100.00;101479.06;5072829;28;20158;-76
2021/12/13 01:27:42;;;;;;;2.27;2.17;;;;;;;7.96;100.00;101460.59;5072053;28;20302;-75
2021/12/13 01:30:11;;;;;;;6.23;2.30;;;;;;;7.96;100.00;101461.44;5072781;28;20163;-77
2021/12/13 01:32:40;;;;;;;0.53;0.53;;;;;;;7.98;100.00;101472.03;5072538;28;20174;-76
2021/12/13 01:35:11;;;;;;;1.23;0.87;;;;;;;7.95;100.00;101467.91;5072337;28;20390;-76
2021/12/13 01:37:37;;;;;;;1.20;1.10;;;;;;;7.97;100.00;101482.09;5072418;28;20167;-76
2021/12/13 01:40:08;;;;;;;1.43;1.17;;;;;;;7.97;100.00;101476.66;5072356;28;20656;-76
2021/12/13 01:42:34;;;;;;;2.73;2.07;;;;;;;7.99;100.00;101465.50;5072286;28;20573;-75
2021/12/13 01:45:05;;;;;;;1.23;1.17;;;;;;;7.97;100.00;101484.00;5072097;28;20166;-76
2021/12/13 01:47:37;;;;;;;0.87;0.87;;;;;;;7.98;100.00;101474.75;5072180;28;20210;-76
2021/12/13 01:50:30;;;;;;;0.70;0.70;;;;;;;8.02;100.00;101490.28;5072159;28;20174;-77
2021/12/13 01:52:57;;;;;;;1.60;1.07;;;;;;;8.05;100.00;101483.47;5072687;28;20633;-77
2021/12/13 01:55:33;;;;;;;2.70;2.50;;;;;;;8.05;100.00;101472.59;5071700;28;20179;-76
2021/12/13 02:01:09;;;;;;;0.47;0.47;;;;;;;8.09;100.00;101503.59;5058858;28;20548;-76
2021/12/13 02:03:43;;;;;;;1.27;1.17;;;;;;;8.10;100.00;101483.50;5072156;28;20170;-76
2021/12/13 02:06:08;;;;;;;1.37;1.27;;;;;;;8.11;100.00;101482.41;5071825;28;20614;-76
2021/12/13 02:08:35;;;;;;;1.33;1.17;;;;;;;8.13;100.00;101496.56;5071810;28;20237;-77
2021/12/13 02:11:02;;;;;;;2.40;2.13;;;;;;;8.16;100.00;101487.03;5071883;28;20174;-76
2021/12/13 02:13:37;;;;;;;1.90;1.80;;;;;;;8.18;100.00;101463.09;5071322;28;20259;-76
2021/12/13 02:18:53;;;;;;;1.50;1.40;;;;;;;8.24;100.00;101503.63;5074997;28;20352;-78
2021/12/13 02:21:28;;;;;;;1.63;1.17;;;;;;;8.27;100.00;101475.09;5081679;28;20171;-77
2021/12/13 02:24:02;;;;;;;1.70;1.60;;;;;;;8.28;100.00;101493.88;5072543;28;20818;-77
2021/12/13 02:26:30;;;;;;;2.50;2.30;;;;;;;8.28;100.00;101499.31;5071459;28;20182;-77
2021/12/13 02:29:17;;;;;;;3.27;2.97;;;;;;;8.29;100.00;101483.78;5071944;28;20689;-76
2021/12/13 02:31:43;;;;;;;0.97;0.97;;;;;;;8.30;100.00;101482.69;5071795;28;20186;-78
2021/12/13 02:34:13;;;;;;;4.33;3.93;;;;;;;8.28;100.00;101474.00;5071567;28;20182;-76
2021/12/13 02:36:45;;;;;;;1.67;1.57;;;;;;;8.27;100.00;101508.56;5071410;28;20214;-77
2021/12/13 02:39:16;;;;;;;2.53;2.40;;;;;;;8.28;100.00;101493.88;5071408;28;20186;-77
2021/12/13 02:41:44;;;;;;;1.50;1.37;;;;;;;8.27;100.00;101483.25;5071389;28;20553;-77
2021/12/13 02:44:20;;;;;;;3.23;2.93;;;;;;;8.26;100.00;101489.78;5071158;28;20224;-77
2021/12/13 02:46:47;;;;;;;2.33;2.13;;;;;;;8.27;100.00;101497.69;5070802;28;20186;-77
2021/12/13 02:49:15;;;;;;;3.23;2.93;;;;;;;8.32;100.00;101503.13;5071036;28;20232;-76
2021/12/13 02:51:53;;;;;;;3.17;2.90;;;;;;;8.34;100.00;101502.88;5070929;28;20823;-76
2021/12/13 02:54:24;;;;;;;5.10;2.67;;;;;;;8.32;100.00;101502.31;5071049;28;20179;-77
2021/12/13 02:57:18;;;;;;;4.80;4.37;;;;;;;8.35;100.00;101516.22;5070589;28;20727;-76
2021/12/13 02:59:50;;;;;;;3.70;2.73;;;;;;;8.36;100.00;101511.59;5067016;28;20194;-77
2021/12/13 03:02:24;;;;;;;2.20;2.07;;;;;;;8.37;100.00;101520.56;5070860;28;20210;-76
2021/12/13 03:04:51;;;;;;;6.00;5.40;;;;;;;8.38;100.00;101492.25;5070815;28;20178;-77
2021/12/13 03:07:19;;;;;;;5.90;5.33;;;;;;;8.38;100.00;101508.59;5069979;28;20703;-77
2021/12/13 03:09:49;;;;;;;4.20;3.80;;;;;;;8.38;100.00;101512.13;5070857;28;20652;-77
2021/12/13 03:12:17;;;;;;;3.60;3.30;;;;;;;8.39;100.00;101502.06;5070814;28;20166;-77
2021/12/13 03:14:51;;;;;;;5.27;4.63;;;;;;;8.36;100.00;101544.25;5070299;28;20664;-77
2021/12/13 03:17:25;;;;;;;5.57;4.57;;;;;;;8.37;100.00;101512.41;5070792;28;20185;-77
2021/12/13 03:20:20;;;;;;;1.97;1.80;;;;;;;8.40;100.00;101534.50;5070844;28;20185;-77
2021/12/13 03:23:18;;;;;;;5.50;4.53;;;;;;;8.42;100.00;101521.41;5070791;28;20580;-77
2021/12/13 03:26:06;;;;;;;4.03;3.20;;;;;;;8.44;100.00;101500.19;5048693;28;20282;-77
2021/12/13 03:29:10;;;;;;;7.07;5.83;;;;;;;8.47;100.00;101510.53;5070501;28;20213;-77
2021/12/13 03:31:44;;;;;;;1.43;1.33;;;;;;;8.50;100.00;101499.06;5070550;28;20650;-77
2021/12/13 03:34:14;;;;;;;4.93;4.50;;;;;;;8.46;100.00;101541.56;5070646;28;20231;-76
2021/12/13 03:36:42;;;;;;;2.70;2.50;;;;;;;8.48;100.00;101542.13;5070438;28;20236;-76
2021/12/13 03:39:11;;;;;;;4.23;3.37;;;;;;;8.49;100.00;101511.06;5070553;28;20173;-76
2021/12/13 03:41:41;;;;;;;4.40;2.87;;;;;;;8.50;100.00;101542.66;5070661;28;20197;-77
2021/12/13 03:44:13;;;;;;;3.97;3.57;;;;;;;8.51;100.00;101506.16;5070502;28;20205;-77
2021/12/13 03:46:40;;;;;;;6.47;5.40;;;;;;;8.50;100.00;101542.66;5070397;28;20203;-76
2021/12/13 03:49:08;;;;;;;4.37;3.93;;;;;;;8.55;100.00;101517.34;5070407;28;20171;-77
2021/12/13 03:51:38;;;;;;;13.27;8.93;;;;;;;8.55;100.00;101529.06;5070884;28;20184;-77
2021/12/13 03:54:05;;;;;;;4.50;3.33;;;;;;;8.55;100.00;101525.53;5070443;28;20178;-77
2021/12/13 03:56:38;;;;;;;6.67;6.00;;;;;;;8.56;100.00;101519.00;5070109;28;20175;-77
2021/12/13 03:59:12;;;;;;;10.93;6.57;;;;;;;8.54;100.00;101513.81;5070532;28;20216;-77
2021/12/13 04:02:07;;;;;;;3.30;2.87;;;;;;;8.56;100.00;101521.72;5070401;28;20254;-76
2021/12/13 04:04:41;;;;;;;6.63;6.13;;;;;;;8.59;100.00;101534.78;5068938;28;20216;-76
2021/12/13 04:07:14;;;;;;;4.47;4.10;;;;;;;8.61;100.00;101543.50;5070100;28;20256;-77
2021/12/13 04:09:43;;;;;;;3.10;2.40;;;;;;;8.62;100.00;101528.78;5070296;28;20679;-76
2021/12/13 04:12:10;;;;;;;13.20;8.50;;;;;;;8.64;100.00;101530.13;5070237;28;20174;-77
2021/12/13 04:14:42;;;;;;;11.47;8.20;;;;;;;8.65;100.00;101556.28;5070235;28;20425;-77
2021/12/13 04:17:37;;;;;;;4.33;3.90;;;;;;;8.67;100.00;101545.13;5070407;28;20159;-77
2021/12/13 04:20:11;;;;;;;3.63;3.33;;;;;;;8.70;100.00;101527.44;5073832;28;20174;-76
2021/12/13 04:22:46;;;;;;;11.23;8.70;;;;;;;8.69;100.00;101531.25;5071145;28;20236;-77
2021/12/13 04:25:18;;;;;;;4.07;3.77;;;;;;;8.67;100.00;101517.88;5073913;28;20174;-76
2021/12/13 04:27:53;;;;;;;5.90;5.20;;;;;;;8.65;100.00;101531.78;5065834;28;20198;-76
2021/12/13 04:30:21;;;;;;;7.57;5.60;;;;;;;8.64;100.00;101530.13;5073606;28;20178;-77
2021/12/13 04:32:52;;;;;;;9.37;8.10;;;;;;;8.63;100.00;101546.75;5073690;28;20228;-77
2021/12/13 04:35:19;;;;;;;6.40;5.97;;;;;;;8.62;100.00;101553.31;5073823;28;20185;-77
2021/12/13 04:37:48;;;;;;;2.60;2.23;;;;;;;8.62;100.00;101539.69;5073596;28;20551;-77
2021/12/13 04:40:25;;;;;;;3.57;3.27;;;;;;;8.63;100.00;101546.75;5073414;28;20179;-76
2021/12/13 04:43:03;;;;;;;5.97;5.43;;;;;;;8.61;100.00;101555.22;5066866;28;20641;-76
2021/12/13 04:45:30;;;;;;;7.20;5.03;;;;;;;8.60;100.00;101569.91;5073302;28;20235;-76
2021/12/13 04:48:06;;;;;;;3.57;3.20;;;;;;;8.62;100.00;101554.13;5073332;28;20533;-76
2021/12/13 04:50:44;;;;;;;2.63;2.43;;;;;;;8.60;100.00;101539.94;5073381;28;20179;-76
2021/12/13 04:53:23;;;;;;;2.20;2.03;;;;;;;8.60;100.00;101571.81;5073500;28;20181;-76
2021/12/13 04:55:49;;;;;;;5.63;5.20;;;;;;;8.62;100.00;101547.84;5073040;28;20171;-77
2021/12/13 04:58:17;;;;;;;16.30;7.03;;;;;;;8.60;100.00;101561.75;5073221;28;20163;-77
2021/12/13 05:00:47;;;;;;;3.00;2.80;;;;;;;8.60;100.00;101558.22;5073132;28;20181;-76
2021/12/13 05:03:15;;;;;;;10.73;6.53;;;;;;;8.57;100.00;101566.94;5073232;28;20202;-76
2021/12/13 05:05:41;;;;;;;3.50;3.20;;;;;;;8.56;100.00;101585.16;5071600;28;20175;-76
2021/12/13 05:08:13;;;;;;;7.13;3.93;;;;;;;8.58;100.00;101563.94;5072983;28;20252;-76
2021/12/13 05:10:43;;;;;;;16.40;11.30;;;;;;;8.63;100.00;101563.09;5070468;28;20744;-76
2021/12/13 05:13:13;;;;;;;5.47;4.83;;;;;;;8.67;100.00;101582.44;5073067;28;20448;-76
2021/12/13 05:15:43;;;;;;;12.97;9.83;;;;;;;8.63;100.00;101563.09;5072732;28;20178;-76
2021/12/13 05:18:23;;;;;;;4.97;4.03;;;;;;;8.63;100.00;101561.19;5072741;28;20257;-77
2021/12/13 05:21:00;;;;;;;9.43;7.90;;;;;;;8.63;100.00;101588.44;5072857;28;20174;-77
2021/12/13 05:23:26;;;;;;;6.60;5.13;;;;;;;8.61;100.00;101593.34;5072838;28;20182;-77
2021/12/13 05:25:58;;;;;;;11.97;9.93;;;;;;;8.58;100.00;101574.81;5072477;28;20171;-76
2021/12/13 05:28:29;;;;;;;2.23;2.13;;;;;;;8.62;100.00;101565.00;5072857;28;20568;-77
2021/12/13 05:31:04;;;;;;;7.10;6.00;;;;;;;8.63;100.00;101577.53;5071973;28;20189;-76
2021/12/13 05:33:34;;;;;;;6.93;3.83;;;;;;;8.63;100.00;101572.09;5072622;28;20193;-76
2021/12/13 05:36:04;;;;;;;2.87;2.67;;;;;;;8.63;100.00;101610.22;5072399;28;20174;-76
2021/12/13 05:38:32;;;;;;;12.53;7.80;;;;;;;8.65;100.00;101583.53;5072430;28;20178;-76
2021/12/13 05:41:00;;;;;;;11.13;8.70;;;;;;;8.66;100.00;101597.97;5071182;28;20175;-76
2021/12/13 05:43:31;;;;;;;5.23;4.60;;;;;;;8.64;100.00;101602.88;5072600;28;20175;-76
2021/12/13 05:46:09;;;;;;;6.37;3.97;;;;;;;8.65;100.00;101590.88;5072389;28;20174;-77
2021/12/13 05:48:35;;;;;;;3.07;2.20;;;;;;;8.64;100.00;101589.25;5072409;28;20284;-76
2021/12/13 05:51:05;;;;;;;6.03;3.53;;;;;;;8.64;100.00;101616.50;5072287;28;20262;-76
2021/12/13 05:53:37;;;;;;;6.53;5.10;;;;;;;8.64;100.00;101600.16;5072227;28;20638;-76
2021/12/13 05:56:20;;;;;;;9.93;8.90;;;;;;;8.65;100.00;101624.41;5072219;28;20171;-77
2021/12/13 05:59:08;;;;;;;4.80;4.40;;;;;;;8.65;100.00;101618.94;5072165;28;20205;-75
2021/12/13 06:01:54;;;;;;;9.23;7.83;;;;;;;8.65;100.00;101618.13;5072133;28;20175;-76
2021/12/13 06:04:40;;;;;;;10.50;7.20;;;;;;;8.63;100.00;101614.88;5071971;28;20574;-76
2021/12/13 06:07:33;;;;;;;13.10;9.70;;;;;;;8.66;100.00;101633.38;5071715;28;20681;-76
2021/12/13 06:10:16;;;;;;;5.13;4.30;;;;;;;8.65;100.00;101654.38;5070299;28;20206;-76
2021/12/13 06:12:56;;;;;;;12.93;7.23;;;;;;;8.64;100.00;101655.44;5071843;28;20513;-77
2021/12/13 06:15:24;;;;;;;7.17;6.47;;;;;;;8.64;100.00;101660.91;5070185;28;20546;-76
2021/12/13 06:17:58;;;;;;;13.57;10.33;;;;;;;8.67;100.00;101667.72;5070581;28;20535;-76
2021/12/13 06:20:28;;;;;;;9.83;8.83;;;;;;;8.67;100.00;101667.72;5071762;28;20174;-77
2021/12/13 06:23:19;;;;;;;13.37;10.83;;;;;;;8.69;100.00;101672.91;5071619;28;20193;-76
2021/12/13 06:25:49;;;;;;;7.93;2.23;;;;;;;8.69;100.00;101671.00;5071439;28;20215;-76
2021/12/13 06:28:28;;;;;;;8.23;7.43;;;;;;;8.70;100.00;101675.38;5071438;28;20587;-76
2021/12/13 06:30:58;;;;;;;12.03;8.93;;;;;;;8.68;100.00;101693.91;5071212;28;20182;-76
2021/12/13 06:33:24;;;;;;;7.03;6.30;;;;;;;8.69;100.00;101686.53;5071188;28;20558;-76
2021/12/13 06:35:51;;;;;;;3.97;3.67;;;;;;;8.69;100.00;101681.91;5071164;28;20186;-76
2021/12/13 06:38:19;;;;;;;8.03;7.10;;;;;;;8.68;100.00;101693.91;5071071;28;20178;-76
2021/12/13 06:40:51;;;;;;;6.27;5.60;;;;;;;8.67;100.00;101680.50;5070980;28;20650;-77
2021/12/13 06:43:31;;;;;;;8.07;4.50;;;;;;;8.68;100.00;101687.59;5068752;28;20228;-76
2021/12/13 06:46:03;;;;;;;7.90;6.80;;;;;;;8.68;100.00;101674.81;5070697;28;20174;-76
2021/12/13 06:48:39;;;;;;;13.63;8.60;;;;;;;8.69;100.00;101683.81;5070836;28;20216;-76
2021/12/13 06:51:06;;;;;;;6.60;4.00;;;;;;;8.70;100.00;101686.28;5070855;28;20178;-76
2021/12/13 06:53:31;;;;;;;7.73;6.23;;;;;;;8.71;100.00;101685.19;5070789;28;20184;-76
2021/12/13 06:56:18;;;;;;;2.33;2.13;;;;;;;8.74;100.00;101684.63;5070540;28;20179;-76
2021/12/13 06:58:49;;;;;;;10.27;7.50;;;;;;;8.74;100.00;101695.53;5070724;28;20174;-76
2021/12/13 07:01:15;;;;;;;2.43;2.23;;;;;;;8.76;100.00;101701.53;5070744;28;20174;-77
2021/12/13 07:03:51;;;;;;;9.87;5.43;;;;;;;8.77;100.00;101703.16;5070625;28;20508;-75
2021/12/13 07:06:18;;;;;;;3.67;3.43;;;;;;;8.80;100.00;101699.09;5070445;28;20166;-77
2021/12/13 07:08:44;;;;;;;2.37;2.23;;;;;;;8.81;100.00;101695.28;5070580;28;20210;-76
2021/12/13 07:11:13;;;;;;;5.10;4.60;;;;;;;8.80;100.00;101707.25;5070556;28;20190;-76
2021/12/13 07:13:41;;;;;;;9.53;6.30;;;;;;;8.83;100.00;101713.00;5070532;28;20179;-76
2021/12/13 07:16:15;;;;;;;3.83;2.53;;;;;;;8.84;100.00;101711.94;5070385;28;20680;-76
2021/12/13 07:19:22;;;;;;;6.90;4.10;;;;;;;8.86;100.00;101706.22;5070694;28;20171;-75
2021/12/13 07:22:00;;;;;;;4.47;3.50;;;;;;;8.87;100.00;101718.75;5065152;28;20225;-76
2021/12/13 07:24:42;;;;;;;1.33;1.23;;;;;;;8.90;100.00;101723.66;5070466;28;20173;-76
2021/12/13 07:27:12;;;;;;;5.10;4.30;;;;;;;8.89;100.00;101730.19;5070201;28;20685;-75
2021/12/13 07:29:45;;;;;;;8.93;6.20;;;;;;;8.90;100.00;101729.91;5070346;28;20635;-76
2021/12/13 07:32:19;;;;;;;3.07;2.77;;;;;;;8.91;100.00;101738.91;5070483;28;20184;-76
2021/12/13 07:35:06;;;;;;;4.40;2.63;;;;;;;8.93;100.00;101739.47;5070134;28;20296;-76
2021/12/13 07:37:37;;;;;;;5.20;4.87;;;;;;;8.93;100.00;101731.28;5070450;28;20197;-76
2021/12/13 07:40:21;;;;;;;6.43;4.80;;;;;;;8.91;100.00;101737.00;5069096;28;20170;-76
2021/12/13 07:43:05;;;;;;;6.07;4.97;;;;;;;8.91;100.00;101733.47;5070555;28;20536;-75
2021/12/13 07:45:40;;;;;;;6.13;4.27;;;;;;;8.89;100.00;101739.19;5069973;28;20167;-76
2021/12/13 07:48:12;;;;;;;4.73;4.27;;;;;;;8.88;100.00;101732.09;5070174;28;20243;-76
2021/12/13 07:50:41;;;;;;;7.60;6.20;;;;;;;8.88;100.00;101731.28;5070291;28;20198;-77
2021/12/13 07:53:11;;;;;;;7.13;6.10;;;;;;;8.89;100.00;101738.38;5070712;28;20201;-76
2021/12/13 07:55:46;;;;;;;7.23;5.70;;;;;;;8.87;100.00;101725.00;5074069;28;20178;-77
2021/12/13 07:58:15;;;;;;;6.07;4.20;;;;;;;8.87;100.00;101733.19;5074250;28;20213;-76
2021/12/13 08:00:40;;;;;;;6.00;5.40;;;;;;;8.87;100.00;101735.91;5074281;28;20175;-76
2021/12/13 08:03:13;;;;;;;5.73;5.20;;;;;;;8.88;100.00;101742.19;5074113;28;20171;-76
2021/12/13 08:05:45;;;;;;;8.33;6.80;;;;;;;8.90;100.00;101742.72;5072691;28;20183;-76
2021/12/13 08:08:24;;;;;;;6.77;4.77;;;;;;;8.90;100.00;101751.72;5074476;28;20284;-76
2021/12/13 08:10:55;;;;;;;7.27;4.60;;;;;;;8.91;100.00;101755.25;5073883;28;20197;-75
2021/12/13 08:13:27;;;;;;;4.83;4.00;;;;;;;8.91;100.00;101747.91;5074270;28;20557;-76
2021/12/13 08:16:07;;;;;;;9.13;3.93;;;;;;;8.94;100.00;101766.44;5073532;28;20545;-76
2021/12/13 08:18:42;;;;;;;7.43;3.27;;;;;;;8.95;100.00;101765.34;5073918;28;20166;-76
2021/12/13 08:21:13;;;;;;;2.47;1.70;;;;;;;8.96;100.00;101766.16;5074272;28;20178;-77
2021/12/13 08:23:41;;;;;;;7.87;5.77;;;;;;;8.97;100.00;101764.25;5073852;28;20151;-77
2021/12/13 08:26:10;;;;;;;4.47;4.07;;;;;;;8.95;100.00;101765.34;5073393;28;20171;-76
2021/12/13 08:28:40;;;;;;;5.53;4.93;;;;;;;8.97;100.00;101770.56;5073587;28;20264;-76
2021/12/13 08:31:09;;;;;;;6.53;5.73;;;;;;;8.98;100.00;101771.38;5073732;28;20249;-77
2021/12/13 08:33:39;;;;;;;6.97;5.40;;;;;;;8.98;100.00;101765.94;5073547;28;20178;-77
2021/12/13 08:36:30;;;;;;;7.80;6.40;;;;;;;9.03;100.00;101776.84;5073299;28;20205;-77
2021/12/13 08:39:04;;;;;;;7.40;5.60;;;;;;;9.05;100.00;101774.66;5073628;28;20167;-77
2021/12/13 08:41:36;;;;;;;4.70;4.27;;;;;;;9.05;100.00;101775.47;5073562;28;20188;-75
2021/12/13 08:44:11;;;;;;;5.17;4.67;;;;;;;9.07;100.00;101786.94;5073589;28;20532;-77
2021/12/13 08:46:51;;;;;;;4.53;3.80;;;;;;;9.09;100.00;101778.47;5073104;28;20261;-77
2021/12/13 08:49:37;;;;;;;5.10;4.60;;;;;;;9.11;100.00;101776.28;5072576;28;20178;-77
2021/12/13 08:52:35;;;;;;;6.33;5.73;;;;;;;9.14;100.00;101787.50;5067657;28;20557;-76
2021/12/13 08:55:10;;;;;;;4.53;4.13;;;;;;;9.16;100.00;101789.97;5071909;28;20706;-74
2021/12/13 08:57:59;;;;;;;5.70;5.10;;;;;;;9.16;100.00;101793.50;5072935;28;20536;-76
2021/12/13 09:00:35;;;;;;;9.50;6.03;;;;;;;9.19;100.00;101803.06;5072941;28;20186;-78
2021/12/13 09:03:10;;;;;;;5.93;4.60;;;;;;;9.19;100.00;101803.88;5077168;28;20529;-77
2021/12/13 09:05:39;;;;;;;5.43;4.83;;;;;;;9.19;100.00;101801.16;5076445;28;20467;-78
2021/12/13 09:08:12;;;;;;;5.70;4.83;;;;;;;9.22;100.00;101799.78;5073857;28;20483;-77
2021/12/13 09:10:46;;;;;;;5.43;4.93;;;;;;;9.25;100.00;101812.88;5072532;28;20190;-78
2021/12/13 09:13:14;;;;;;;6.80;6.07;;;;;;;9.24;100.00;101800.31;5071426;28;20675;-78
2021/12/13 09:15:42;;;;;;;6.47;5.83;;;;;;;9.25;100.00;101802.78;5071437;28;20170;-76
2021/12/13 09:18:13;;;;;;;6.90;5.33;;;;;;;9.27;100.00;101802.53;5072932;28;20650;-78
2021/12/13 09:20:44;;;;;;;9.27;3.33;;;;;;;9.28;100.00;101800.63;5073251;28;20713;-79
2021/12/13 09:23:20;;;;;;;7.43;5.77;;;;;;;9.29;100.00;101799.53;5071995;28;20185;-85
2021/12/13 09:25:50;;;;;;;8.23;7.43;;;;;;;9.23;100.00;101802.25;5072729;28;20621;-77
2021/12/13 09:28:21;;;;;;;8.83;6.33;;;;;;;9.29;100.00;101808.53;5072859;28;20194;-78
2021/12/13 09:30:54;;;;;;;7.03;5.90;;;;;;;9.32;100.00;101813.47;5071935;28;20163;-77
2021/12/13 09:33:27;;;;;;;6.17;5.57;;;;;;;9.33;100.00;101809.63;5072477;28;20476;-78
2021/12/13 09:36:04;;;;;;;8.23;6.10;;;;;;;9.35;100.00;101803.91;5071965;28;20656;-77
2021/12/13 09:38:54;;;;;;;2.40;2.20;;;;;;;9.33;100.00;101812.38;5072280;28;20182;-77
2021/12/13 09:41:57;;;;;;;6.87;6.17;;;;;;;9.35;100.00;101812.09;5072277;28;20654;-77
2021/12/13 09:44:33;;;;;;;3.03;2.60;;;;;;;9.36;100.00;101811.00;5072151;28;20179;-78
2021/12/13 09:47:20;;;;;;;7.10;5.80;;;;;;;9.38;100.00;101817.00;5071908;28;20553;-78
2021/12/13 09:49:55;;;;;;;12.37;4.37;;;;;;;9.38;100.00;101819.72;5067280;28;20182;-77
2021/12/13 09:52:32;;;;;;;6.23;5.63;;;;;;;9.39;100.00;101807.72;5072038;28;20182;-78
2021/12/13 09:55:12;;;;;;;5.77;5.07;;;;;;;9.40;100.00;101817.53;5071688;28;20170;-78
2021/12/13 09:58:19;;;;;;;6.50;5.47;;;;;;;9.40;100.00;101817.53;5064554;28;20684;-76
2021/12/13 10:01:08;;;;;;;8.83;6.80;;;;;;;9.39;100.00;101822.19;5063761;28;20179;-77
2021/12/13 10:03:49;;;;;;;9.40;7.40;;;;;;;9.39;100.00;101822.19;5070823;28;20175;-77
2021/12/13 10:06:18;;;;;;;12.50;8.77;;;;;;;9.40;100.00;101815.66;5071423;28;20205;-76
2021/12/13 10:09:01;;;;;;;9.27;7.63;;;;;;;9.41;100.00;101803.66;5068872;28;20224;-75
2021/12/13 10:11:34;;;;;;;10.20;9.00;;;;;;;9.41;100.00;101811.84;5072052;28;20258;-77
2021/12/13 10:14:00;;;;;;;2.33;2.13;;;;;;;9.39;100.00;101796.81;5069220;28;20546;-77
2021/12/13 10:16:33;;;;;;;6.03;5.43;;;;;;;9.36;100.00;101790.00;5070631;28;20186;-74
2021/12/13 10:19:02;;;;;;;11.17;9.70;;;;;;;9.32;100.00;101794.38;5071303;28;20194;-76
2021/12/13 10:21:31;;;;;;;7.77;5.43;;;;;;;9.33;100.00;101787.00;5068992;28;20204;-75
2021/12/13 10:24:05;;;;;;;8.97;7.10;;;;;;;9.32;100.00;101790.81;5070875;28;20187;-75
2021/12/13 10:26:36;;;;;;;4.27;3.97;;;;;;;9.32;100.00;101797.09;5071152;28;20260;-76
2021/12/13 10:29:06;;;;;;;9.73;8.53;;;;;;;9.32;100.00;101799.00;5071262;28;20513;-75
2021/12/13 10:31:45;;;;;;;7.47;5.03;;;;;;;9.31;100.00;101791.91;5069319;28;20187;-75
2021/12/13 10:34:15;;;;;;;15.97;12.03;;;;;;;9.33;100.00;101795.19;5066244;28;20204;-75
2021/12/13 10:36:47;;;;;;;10.80;8.50;;;;;;;9.33;100.00;101795.19;5063155;28;20539;-76
2021/12/13 10:39:27;;;;;;;4.30;3.93;;;;;;;9.31;100.00;101806.38;5069823;28;20269;-76
2021/12/13 10:41:55;;;;;;;9.53;8.57;;;;;;;9.30;100.00;101814.81;5069022;28;20638;-77
2021/12/13 10:44:29;;;;;;;9.93;8.63;;;;;;;9.29;100.00;101800.38;5070890;28;20190;-77
2021/12/13 10:47:10;;;;;;;10.87;9.77;;;;;;;9.30;100.00;101804.72;5070955;28;20205;-78
2021/12/13 10:49:39;;;;;;;14.77;10.97;;;;;;;9.29;100.00;101805.81;5071078;28;20223;-75
2021/12/13 10:52:13;;;;;;;7.53;4.67;;;;;;;9.27;100.00;101801.72;5070944;28;20217;-78
2021/12/13 10:54:44;;;;;;;9.97;7.60;;;;;;;9.26;100.00;101800.91;5070698;28;20178;-78
2021/12/13 10:57:19;;;;;;;15.47;11.70;;;;;;;9.27;100.00;101799.00;5070954;28;20231;-75
2021/12/13 10:59:47;;;;;;;11.93;8.23;;;;;;;9.27;100.00;101799.81;5071113;28;20178;-77
2021/12/13 11:02:19;;;;;;;13.83;10.23;;;;;;;9.29;100.00;101800.38;5070974;28;20236;-77
2021/12/13 11:04:54;;;;;;;12.10;9.83;;;;;;;9.29;100.00;101796.81;5070719;28;20178;-76
2021/12/13 11:07:21;;;;;;;7.83;7.03;;;;;;;9.26;100.00;101798.19;5069604;28;20220;-76
2021/12/13 11:09:49;;;;;;;9.87;8.87;;;;;;;9.27;100.00;101802.53;5067192;28;20193;-76
2021/12/13 11:12:24;;;;;;;14.53;10.93;;;;;;;9.28;100.00;101808.81;5070610;28;20498;-77
2021/12/13 11:14:54;;;;;;;13.53;10.77;;;;;;;9.27;100.00;101791.63;5063967;28;20223;-76
2021/12/13 11:17:23;;;;;;;10.97;9.13;;;;;;;9.28;100.00;101798.72;5070552;28;20178;-77
2021/12/13 11:19:52;;;;;;;12.63;8.23;;;;;;;9.31;100.00;101797.38;5069374;28;20295;-75
2021/12/13 11:22:24;;;;;;;14.27;9.37;;;;;;;9.28;100.00;101803.34;5070758;28;20179;-76
2021/12/13 11:24:53;;;;;;;11.13;9.70;;;;;;;9.28;100.00;101808.81;5070556;28;20549;-76
2021/12/13 11:27:23;;;;;;;10.33;8.17;;;;;;;9.26;100.00;101806.34;5070450;28;20658;-78
2021/12/13 11:29:51;;;;;;;11.03;9.80;;;;;;;9.25;100.00;101805.50;5068827;28;20174;-77
2021/12/13 11:32:34;;;;;;;14.60;10.03;;;;;;;9.25;100.00;101801.97;5070741;28;20522;-77
2021/12/13 11:35:15;;;;;;;3.63;3.33;;;;;;;9.22;100.00;101784.25;5070373;28;20216;-75
2021/12/13 11:38:26;;;;;;;10.83;9.33;;;;;;;9.21;100.00;101788.06;5070493;28;20171;-76
2021/12/13 11:41:29;;;;;;;12.53;6.87;;;;;;;9.21;100.00;101789.97;5070331;28;20186;-76
2021/12/13 11:44:17;;;;;;;12.23;6.20;;;;;;;9.18;100.00;101785.06;5070500;28;20185;-76
2021/12/13 11:47:19;;;;;;;12.07;10.63;;;;;;;9.18;100.00;101795.97;5069829;28;20274;-77
2021/12/13 11:50:22;;;;;;;11.97;8.13;;;;;;;9.16;100.00;101785.34;5070120;28;20162;-76
2021/12/13 11:53:09;;;;;;;2.47;2.27;;;;;;;9.19;100.00;101794.88;5070045;28;20172;-77
2021/12/13 11:56:13;;;;;;;10.20;7.03;;;;;;;9.18;100.00;101791.34;5069754;28;20170;-76
2021/12/13 11:58:58;;;;;;;9.80;7.73;;;;;;;9.15;100.00;101788.31;5069668;28;20282;-75
2021/12/13 12:01:49;;;;;;;11.07;6.47;;;;;;;9.11;100.00;101785.31;5068782;28;20186;-76
2021/12/13 12:04:52;;;;;;;10.67;8.90;;;;;;;9.10;100.00;101782.84;5068668;28;20707;-76
2021/12/13 12:07:39;;;;;;;10.90;8.97;;;;;;;9.09;100.00;101773.03;5069816;28;20198;-75
2021/12/13 12:10:32;;;;;;;10.07;4.93;;;;;;;9.08;100.00;101795.94;5069919;28;20189;-76
2021/12/13 12:13:04;;;;;;;13.70;10.33;;;;;;;9.07;100.00;101786.94;5069861;28;20171;-77